Time;durP1;ratioP1;P1;durP2;ratioP2;P2;SDS_P1;SDS_P2;PMS_P1;PMS_P2;Temp;Humidity;BMP_temperature;BMP_pressure;BME280_temperature;BME280_humidity;BME280_pressure;Samples;Min_cycle;Max_cycle;Signal;HPM_P1;HPM_P2
2024/03/16 00:02:12;;;;;;;9.57;4.50;;;10.20;99.90;;;;;;5053391;28;20036;-51
2024/03/16 00:04:39;;;;;;;17.50;6.80;;;10.10;99.90;;;;;;5062682;28;20555;-52
2024/03/16 00:07:05;;;;;;;19.73;8.07;;;10.00;99.90;;;;;;5060477;28;20023;-48
2024/03/16 00:09:31;;;;;;;50.05;14.35;;;10.00;99.90;;;;;;5063142;28;20044;-54
2024/03/16 00:11:56;;;;;;;33.40;12.23;;;10.00;99.90;;;;;;5060074;28;20032;-46
2024/03/16 00:14:23;;;;;;;30.80;11.98;;;10.00;99.90;;;;;;5067298;28;20082;-51
2024/03/16 00:16:48;;;;;;;22.15;9.60;;;9.90;99.90;;;;;;5066969;28;20076;-50
2024/03/16 00:19:14;;;;;;;15.13;7.35;;;9.90;99.90;;;;;;5065078;28;20032;-46
2024/03/16 00:21:39;;;;;;;16.35;7.03;;;9.90;99.90;;;;;;5061121;28;20043;-51
2024/03/16 00:24:07;;;;;;;8.25;4.90;;;9.80;99.90;;;;;;5069231;28;20025;-53
2024/03/16 00:26:32;;;;;;;7.82;4.18;;;9.70;99.90;;;;;;5062969;28;20111;-51
2024/03/16 00:28:58;;;;;;;6.25;4.05;;;9.70;99.90;;;;;;5062194;28;20103;-49
2024/03/16 00:31:24;;;;;;;6.03;4.18;;;9.60;99.90;;;;;;5072069;28;20039;-50
2024/03/16 00:33:49;;;;;;;5.28;3.47;;;9.60;99.90;;;;;;5066586;28;20131;-50
2024/03/16 00:36:17;;;;;;;4.72;3.55;;;9.60;99.90;;;;;;5067897;28;20025;-50
2024/03/16 00:38:44;;;;;;;4.82;3.40;;;9.50;99.90;;;;;;5063054;28;20032;-51
2024/03/16 00:41:09;;;;;;;4.75;3.15;;;9.50;99.90;;;;;;5068569;28;20484;-48
2024/03/16 00:43:34;;;;;;;6.00;3.30;;;9.50;99.90;;;;;;5062524;28;20111;-48
2024/03/16 00:46:00;;;;;;;6.30;4.35;;;9.50;99.90;;;;;;5064424;28;20039;-52
2024/03/16 00:48:26;;;;;;;6.20;3.83;;;9.60;99.90;;;;;;5063115;28;20093;-50
2024/03/16 00:50:52;;;;;;;4.95;3.45;;;9.60;99.90;;;;;;5070091;28;20507;-48
2024/03/16 00:53:17;;;;;;;4.57;3.30;;;9.60;99.90;;;;;;5064068;28;20044;-50
2024/03/16 00:55:43;;;;;;;5.30;3.22;;;9.60;99.90;;;;;;5068349;28;20028;-52
2024/03/16 00:58:08;;;;;;;6.50;3.67;;;9.70;99.90;;;;;;5065673;28;20638;-49
2024/03/16 01:00:34;;;;;;;5.40;3.22;;;9.60;99.90;;;;;;5068919;28;20012;-49
2024/03/16 01:03:00;;;;;;;3.00;2.70;;;9.60;99.90;;;;;;5068593;28;20028;-47
2024/03/16 01:05:27;;;;;;;3.00;2.42;;;9.60;99.90;;;;;;5062042;28;20050;-49
2024/03/16 01:07:53;;;;;;;4.80;3.08;;;9.60;99.90;;;;;;5064731;28;20033;-51
2024/03/16 01:10:19;;;;;;;3.53;2.50;;;9.60;99.90;;;;;;5068195;28;20028;-49
2024/03/16 01:12:44;;;;;;;5.93;2.92;;;9.50;99.90;;;;;;5066023;28;20123;-48
2024/03/16 01:15:10;;;;;;;5.45;2.80;;;9.50;99.90;;;;;;5071550;28;20066;-48
2024/03/16 01:17:35;;;;;;;3.75;2.42;;;9.50;99.90;;;;;;5067386;28;20024;-50
2024/03/16 01:20:01;;;;;;;4.10;2.30;;;9.40;99.90;;;;;;5075696;28;20025;-51
2024/03/16 01:22:26;;;;;;;2.40;2.20;;;9.40;99.90;;;;;;5061931;28;20032;-51
2024/03/16 01:24:52;;;;;;;2.67;2.17;;;9.40;99.90;;;;;;5068107;28;20488;-47
2024/03/16 01:27:17;;;;;;;3.55;2.22;;;9.40;99.90;;;;;;5063741;28;20043;-49
2024/03/16 01:29:43;;;;;;;3.17;2.38;;;9.40;99.90;;;;;;5061743;28;20025;-48
2024/03/16 01:32:08;;;;;;;3.95;2.90;;;9.40;99.90;;;;;;5063599;28;20533;-51
2024/03/16 01:34:37;;;;;;;3.88;3.00;;;9.40;99.90;;;;;;5059853;28;20035;-50
2024/03/16 01:37:02;;;;;;;4.28;3.28;;;9.50;99.90;;;;;;5070423;28;20024;-48
2024/03/16 01:39:29;;;;;;;3.45;2.33;;;9.50;99.90;;;;;;5058072;28;20025;-47
2024/03/16 01:41:55;;;;;;;3.28;2.33;;;9.50;99.90;;;;;;5063682;28;20499;-51
2024/03/16 01:44:21;;;;;;;5.15;2.92;;;9.50;99.90;;;;;;5073340;28;20024;-48
2024/03/16 01:46:47;;;;;;;4.22;3.22;;;9.60;99.90;;;;;;5069801;28;20542;-51
2024/03/16 01:49:12;;;;;;;4.82;2.72;;;9.60;99.90;;;;;;5063596;28;20033;-49
2024/03/16 01:51:39;;;;;;;4.28;2.45;;;9.60;99.90;;;;;;5067824;28;20019;-47
2024/03/16 01:54:05;;;;;;;3.30;2.58;;;9.60;99.90;;;;;;5071741;28;20036;-48
2024/03/16 01:56:32;;;;;;;3.35;2.63;;;9.60;99.90;;;;;;5072500;28;20036;-50
2024/03/16 01:58:57;;;;;;;3.88;2.63;;;9.60;99.90;;;;;;5070888;28;20021;-49
2024/03/16 02:01:23;;;;;;;4.57;2.92;;;9.60;99.90;;;;;;5069113;28;20024;-48
2024/03/16 02:03:49;;;;;;;4.85;2.85;;;9.60;99.90;;;;;;5062789;28;20056;-50
2024/03/16 02:06:15;;;;;;;4.03;3.22;;;9.70;99.90;;;;;;5068604;28;20471;-47
2024/03/16 02:08:40;;;;;;;4.05;2.60;;;9.70;99.90;;;;;;5067279;28;20052;-53
2024/03/16 02:11:06;;;;;;;3.70;2.58;;;9.80;99.90;;;;;;5067710;28;20021;-51
2024/03/16 02:13:31;;;;;;;3.03;2.60;;;9.80;99.90;;;;;;5059428;28;20439;-47
2024/03/16 02:15:57;;;;;;;2.83;2.15;;;9.90;99.90;;;;;;5057112;28;20059;-49
2024/03/16 02:18:22;;;;;;;3.95;2.60;;;9.90;99.90;;;;;;5059169;28;20016;-50
2024/03/16 02:20:48;;;;;;;4.55;2.40;;;9.80;99.90;;;;;;5067243;28;20495;-51
2024/03/16 02:23:15;;;;;;;2.67;2.17;;;9.80;99.90;;;;;;5065405;28;20036;-50
2024/03/16 02:25:42;;;;;;;3.25;2.20;;;9.80;99.90;;;;;;5066386;28;20555;-49
2024/03/16 02:28:08;;;;;;;3.30;2.33;;;9.90;99.90;;;;;;5065849;28;20033;-50
2024/03/16 02:30:33;;;;;;;2.67;2.22;;;9.80;99.90;;;;;;5069073;28;20078;-49
2024/03/16 02:32:59;;;;;;;3.05;2.30;;;9.80;99.90;;;;;;5067540;28;20056;-49
2024/03/16 02:35:25;;;;;;;3.67;2.50;;;9.80;99.90;;;;;;5071521;28;20021;-47
2024/03/16 02:37:50;;;;;;;2.90;2.40;;;9.80;99.90;;;;;;5069097;28;20703;-53
2024/03/16 02:40:17;;;;;;;4.60;2.60;;;9.80;99.90;;;;;;5066730;28;20036;-48
2024/03/16 02:42:43;;;;;;;3.85;2.70;;;9.80;99.90;;;;;;5065528;28;20491;-48
2024/03/16 02:45:09;;;;;;;5.00;2.55;;;9.80;99.90;;;;;;5071661;28;20396;-50
2024/03/16 02:47:35;;;;;;;5.18;2.67;;;9.90;99.90;;;;;;5073296;28;20476;-51
2024/03/16 02:50:03;;;;;;;5.68;3.10;;;9.90;99.90;;;;;;5066402;28;20098;-47
2024/03/16 02:52:29;;;;;;;2.85;2.40;;;9.90;99.90;;;;;;5072013;28;20056;-49
2024/03/16 02:54:55;;;;;;;4.00;2.75;;;10.00;99.90;;;;;;5067749;28;20028;-49
2024/03/16 02:57:22;;;;;;;3.40;2.63;;;10.00;99.90;;;;;;5067234;28;20066;-47
2024/03/16 02:59:47;;;;;;;5.43;3.00;;;10.10;99.90;;;;;;5066462;28;20070;-51
2024/03/16 03:02:13;;;;;;;4.13;2.60;;;10.10;99.90;;;;;;5062241;28;20036;-51
2024/03/16 03:04:39;;;;;;;5.15;2.90;;;10.20;99.90;;;;;;5064279;28;20032;-51
2024/03/16 03:07:05;;;;;;;3.80;3.10;;;10.20;99.90;;;;;;5070612;28;20100;-46
2024/03/16 03:09:32;;;;;;;4.63;2.65;;;10.20;99.90;;;;;;5066656;28;20040;-46
2024/03/16 03:11:59;;;;;;;3.55;2.85;;;10.30;99.90;;;;;;5072886;28;20024;-48
2024/03/16 03:14:25;;;;;;;4.97;2.80;;;10.30;99.90;;;;;;5067889;28;20032;-49
2024/03/16 03:16:50;;;;;;;4.95;2.80;;;10.30;99.90;;;;;;5067652;28;20046;-49
2024/03/16 03:19:16;;;;;;;5.18;3.00;;;10.30;99.90;;;;;;5073825;28;20518;-49
2024/03/16 03:21:41;;;;;;;3.47;2.92;;;10.30;99.90;;;;;;5069973;28;20019;-46
2024/03/16 03:24:07;;;;;;;4.10;2.85;;;10.30;99.90;;;;;;5071578;28;20043;-48
2024/03/16 03:26:33;;;;;;;4.10;2.97;;;10.30;99.90;;;;;;5075016;28;20051;-48
2024/03/16 03:28:59;;;;;;;4.30;2.50;;;10.30;99.90;;;;;;5061880;28;20036;-53
2024/03/16 03:31:25;;;;;;;2.85;2.13;;;10.40;99.90;;;;;;5067063;28;20027;-50
2024/03/16 03:33:51;;;;;;;3.13;2.30;;;10.40;99.90;;;;;;5069017;28;20040;-51
2024/03/16 03:36:16;;;;;;;4.93;2.63;;;10.30;99.90;;;;;;5069035;28;20108;-44
2024/03/16 03:38:43;;;;;;;4.82;2.88;;;10.30;99.90;;;;;;5062798;28;20095;-48
2024/03/16 03:41:08;;;;;;;5.70;2.97;;;10.30;99.90;;;;;;5070105;28;20032;-50
2024/03/16 03:43:36;;;;;;;3.25;2.45;;;10.30;99.90;;;;;;5065725;28;20028;-50
2024/03/16 03:46:04;;;;;;;3.92;2.85;;;10.30;99.90;;;;;;5069858;28;20058;-50
2024/03/16 03:48:36;;;;;;;3.72;2.45;;;10.30;99.90;;;;;;5066875;28;20516;-52
2024/03/16 03:51:05;;;;;;;4.20;2.38;;;10.30;99.90;;;;;;5064966;28;20589;-50
2024/03/16 03:53:31;;;;;;;5.18;2.97;;;10.30;99.90;;;;;;5075997;28;20037;-50
2024/03/16 03:55:56;;;;;;;2.90;2.40;;;10.20;99.90;;;;;;5070090;28;20449;-52
2024/03/16 03:58:22;;;;;;;3.88;2.75;;;10.20;99.90;;;;;;5065434;28;20027;-54
2024/03/16 04:00:49;;;;;;;3.67;2.25;;;10.10;99.90;;;;;;5075480;28;20527;-58
2024/03/16 04:03:15;;;;;;;4.20;2.92;;;10.10;99.90;;;;;;5065601;28;20028;-52
2024/03/16 04:05:42;;;;;;;4.32;2.50;;;10.10;99.90;;;;;;5072785;28;20030;-51
2024/03/16 04:08:07;;;;;;;3.95;2.60;;;10.10;99.90;;;;;;5062395;28;20029;-48
2024/03/16 04:10:33;;;;;;;4.28;2.80;;;10.10;99.90;;;;;;5066878;28;20370;-51
2024/03/16 04:12:59;;;;;;;3.83;2.67;;;10.10;99.90;;;;;;5074228;28;20546;-49
2024/03/16 04:15:25;;;;;;;3.40;2.38;;;10.20;99.90;;;;;;5062675;28;20035;-51
2024/03/16 04:17:50;;;;;;;4.22;3.03;;;10.20;99.90;;;;;;5076894;28;20059;-52
2024/03/16 04:20:18;;;;;;;4.97;2.67;;;10.20;99.90;;;;;;5074785;28;20028;-48
2024/03/16 04:22:43;;;;;;;3.17;2.38;;;10.20;99.90;;;;;;5073454;28;20020;-49
2024/03/16 04:25:11;;;;;;;2.88;2.40;;;10.20;99.90;;;;;;5074428;28;20026;-50
2024/03/16 04:27:38;;;;;;;3.65;2.17;;;10.30;99.90;;;;;;5068654;28;20021;-47
2024/03/16 04:30:06;;;;;;;4.82;2.40;;;10.30;99.90;;;;;;5072335;28;20043;-51
2024/03/16 04:32:33;;;;;;;4.43;2.67;;;10.30;99.90;;;;;;5080904;28;20028;-50
2024/03/16 04:34:59;;;;;;;5.70;2.53;;;10.30;99.90;;;;;;5070614;28;20027;-50
2024/03/16 04:37:25;;;;;;;3.22;2.33;;;10.30;99.90;;;;;;5070194;28;20525;-48
2024/03/16 04:39:51;;;;;;;3.45;2.80;;;10.30;99.90;;;;;;5065703;28;20107;-47
2024/03/16 04:42:17;;;;;;;4.53;2.63;;;10.30;99.90;;;;;;5066122;28;20388;-49
2024/03/16 04:44:42;;;;;;;4.15;2.33;;;10.30;99.90;;;;;;5064179;28;20016;-46
2024/03/16 04:47:08;;;;;;;4.07;2.40;;;10.40;99.90;;;;;;5067428;28;20039;-49
2024/03/16 04:49:33;;;;;;;4.47;2.63;;;10.40;99.90;;;;;;5066492;28;20028;-49
2024/03/16 04:51:59;;;;;;;4.07;2.72;;;10.40;99.90;;;;;;5060317;28;20548;-52
2024/03/16 04:54:25;;;;;;;3.10;2.45;;;10.40;99.90;;;;;;5065046;28;20055;-52
2024/03/16 04:56:50;;;;;;;5.25;2.25;;;10.40;99.90;;;;;;5070458;28;20412;-47
2024/03/16 04:59:16;;;;;;;3.28;2.38;;;10.40;99.90;;;;;;5075682;28;20051;-49
2024/03/16 05:01:41;;;;;;;4.03;2.05;;;10.40;99.90;;;;;;5070400;28;20124;-46
2024/03/16 05:04:10;;;;;;;2.67;2.10;;;10.40;99.90;;;;;;5074397;28;20039;-49
2024/03/16 05:06:35;;;;;;;4.40;2.97;;;10.40;99.90;;;;;;5067509;28;20024;-48
2024/03/16 05:09:05;;;;;;;3.05;2.50;;;10.40;99.90;;;;;;5065676;28;20148;-49
2024/03/16 05:11:32;;;;;;;3.42;2.40;;;10.40;99.90;;;;;;5071435;28;20417;-46
2024/03/16 05:14:02;;;;;;;2.80;2.10;;;10.30;99.90;;;;;;5072144;28;20116;-52
2024/03/16 05:16:28;;;;;;;4.75;2.25;;;10.30;99.90;;;;;;5065431;28;20020;-50
2024/03/16 05:18:53;;;;;;;4.22;2.55;;;10.20;99.90;;;;;;5070881;28;20115;-51
2024/03/16 05:21:19;;;;;;;4.55;2.55;;;10.10;99.90;;;;;;5064259;28;20451;-51
2024/03/16 05:23:45;;;;;;;3.80;2.83;;;10.10;99.90;;;;;;5066054;28;20028;-52
2024/03/16 05:26:11;;;;;;;3.08;2.40;;;10.00;99.90;;;;;;5064117;28;20017;-54
2024/03/16 05:28:38;;;;;;;3.05;2.38;;;10.00;99.90;;;;;;5062884;28;20040;-51
2024/03/16 05:31:04;;;;;;;2.75;2.22;;;9.90;99.90;;;;;;5065017;28;20036;-50
2024/03/16 05:33:30;;;;;;;5.80;2.65;;;9.90;99.90;;;;;;5068117;28;20128;-47
2024/03/16 05:35:55;;;;;;;4.38;2.75;;;9.80;99.90;;;;;;5066164;28;20088;-51
2024/03/16 05:38:23;;;;;;;3.28;2.53;;;9.80;99.90;;;;;;5062116;28;20404;-53
2024/03/16 05:40:48;;;;;;;2.78;2.30;;;9.80;99.90;;;;;;5051394;28;20021;-49
2024/03/16 05:43:14;;;;;;;5.32;2.33;;;9.80;99.90;;;;;;5073837;28;20117;-51
2024/03/16 05:45:40;;;;;;;2.80;2.25;;;9.80;99.90;;;;;;5071368;28;20020;-51
2024/03/16 05:48:06;;;;;;;4.53;2.50;;;9.80;99.90;;;;;;5072902;28;20041;-54
2024/03/16 05:50:31;;;;;;;4.10;2.40;;;9.80;99.90;;;;;;5067994;28;20502;-50
2024/03/16 05:52:56;;;;;;;4.47;2.33;;;9.70;99.90;;;;;;5065179;28;20108;-48
2024/03/16 05:55:22;;;;;;;4.78;2.42;;;9.70;99.90;;;;;;5063936;28;20025;-49
2024/03/16 05:57:47;;;;;;;8.20;2.85;;;9.70;99.90;;;;;;5066540;28;20028;-49
2024/03/16 06:00:13;;;;;;;4.60;2.65;;;9.80;99.90;;;;;;5060695;28;20024;-49
2024/03/16 06:02:40;;;;;;;5.38;3.60;;;9.90;99.90;;;;;;5065610;28;20020;-50
2024/03/16 06:05:06;;;;;;;7.10;4.28;;;10.20;99.90;;;;;;5062859;28;20021;-51
2024/03/16 06:07:32;;;;;;;5.43;3.85;;;10.50;99.90;;;;;;5074509;28;20071;-51
2024/03/16 06:09:57;;;;;;;6.22;4.30;;;10.80;99.90;;;;;;5063499;28;20063;-51
2024/03/16 06:12:23;;;;;;;6.28;3.75;;;10.80;99.90;;;;;;5072762;28;20028;-52
2024/03/16 06:14:49;;;;;;;7.55;3.97;;;10.90;99.90;;;;;;5065173;28;20021;-49
2024/03/16 06:17:15;;;;;;;5.18;3.55;;;10.90;99.90;;;;;;5067760;28;20029;-46
2024/03/16 06:19:41;;;;;;;5.30;3.38;;;11.10;99.90;;;;;;5069168;28;20029;-48
2024/03/16 06:22:07;;;;;;;4.45;2.40;;;11.50;99.90;;;;;;5064222;28;20027;-48
2024/03/16 06:24:33;;;;;;;3.63;2.47;;;11.70;99.90;;;;;;5057618;28;20467;-45
2024/03/16 06:27:05;;;;;;;5.20;2.72;;;11.90;99.90;;;;;;5064060;28;20599;-47
2024/03/16 06:29:32;;;;;;;4.43;1.98;;;12.20;99.90;;;;;;5059177;28;20032;-45
2024/03/16 06:32:05;;;;;;;2.75;2.00;;;12.90;99.90;;;;;;5067572;28;20036;-49
2024/03/16 06:34:32;;;;;;;3.25;1.60;;;13.60;99.90;;;;;;5070136;28;20256;-46
2024/03/16 06:36:58;;;;;;;3.40;1.52;;;14.30;99.90;;;;;;5062999;28;20403;-46
2024/03/16 06:39:23;;;;;;;2.25;1.55;;;14.80;99.00;;;;;;5056192;28;20023;-45
2024/03/16 06:41:49;;;;;;;1.33;1.20;;;15.40;97.90;;;;;;5068871;28;20025;-47
2024/03/16 06:44:15;;;;;;;4.05;1.80;;;15.80;96.70;;;;;;5067860;28;20173;-48
2024/03/16 06:46:41;;;;;;;2.55;1.50;;;15.80;96.30;;;;;;5071092;28;20024;-46
2024/03/16 06:49:06;;;;;;;2.22;1.48;;;15.90;95.20;;;;;;5068632;28;20366;-45
2024/03/16 06:51:32;;;;;;;3.05;1.20;;;16.10;93.70;;;;;;5065260;28;20151;-45
2024/03/16 06:53:57;;;;;;;1.83;1.20;;;16.60;92.60;;;;;;5067682;28;20060;-46
2024/03/16 06:56:23;;;;;;;2.08;1.38;;;16.90;92.00;;;;;;5062554;28;20038;-47
2024/03/16 06:58:48;;;;;;;1.10;0.98;;;17.10;90.90;;;;;;5063212;28;20021;-48
2024/03/16 07:01:14;;;;;;;2.60;1.30;;;17.60;89.70;;;;;;5065403;28;20033;-46
2024/03/16 07:03:40;;;;;;;2.20;1.10;;;18.20;89.50;;;;;;5064107;28;20050;-48
2024/03/16 07:06:09;;;;;;;1.25;1.05;;;18.70;86.50;;;;;;5062268;28;20476;-45
2024/03/16 07:08:35;;;;;;;2.33;1.10;;;19.30;84.40;;;;;;5061803;28;20052;-46
2024/03/16 07:11:01;;;;;;;2.45;0.98;;;19.60;81.10;;;;;;5066027;28;20426;-46
2024/03/16 07:13:26;;;;;;;1.65;1.15;;;19.40;80.10;;;;;;5066431;28;20152;-45
2024/03/16 07:15:52;;;;;;;1.10;0.90;;;18.90;80.60;;;;;;5064706;28;20122;-49
2024/03/16 07:18:17;;;;;;;1.88;1.17;;;18.20;78.60;;;;;;5066426;28;20024;-47
2024/03/16 07:20:43;;;;;;;1.42;0.90;;;17.60;78.40;;;;;;5071528;28;20032;-44
2024/03/16 07:23:09;;;;;;;2.00;0.93;;;17.10;78.00;;;;;;5066487;28;20036;-44
2024/03/16 07:25:34;;;;;;;4.97;1.38;;;16.70;78.10;;;;;;5070121;28;20034;-47
2024/03/16 07:28:00;;;;;;;2.92;1.42;;;16.40;78.00;;;;;;5065961;28;20028;-46
2024/03/16 07:30:26;;;;;;;5.03;1.30;;;16.00;77.80;;;;;;5066734;28;20416;-45
2024/03/16 07:32:52;;;;;;;3.45;1.23;;;15.70;77.90;;;;;;5071329;28;20408;-45
2024/03/16 07:35:17;;;;;;;5.95;1.40;;;15.50;77.80;;;;;;5065901;28;20016;-46
2024/03/16 07:37:43;;;;;;;8.32;1.38;;;15.20;76.80;;;;;;5065826;28;20029;-51
2024/03/16 07:40:14;;;;;;;2.85;1.05;;;15.00;77.50;;;;;;5055305;28;20039;-48
2024/03/16 07:42:43;;;;;;;3.03;1.17;;;14.80;78.10;;;;;;5061658;28;20021;-46
2024/03/16 07:45:09;;;;;;;4.00;1.05;;;14.70;78.00;;;;;;5069799;28;20024;-46
2024/03/16 07:47:35;;;;;;;3.17;1.20;;;14.50;77.90;;;;;;5061409;28;20032;-47
2024/03/16 07:50:00;;;;;;;2.20;1.15;;;14.40;78.10;;;;;;5073905;28;20596;-45
2024/03/16 07:52:27;;;;;;;2.85;1.58;;;14.40;78.50;;;;;;5063323;28;20035;-46
2024/03/16 07:54:53;;;;;;;3.85;1.23;;;14.20;78.40;;;;;;5063411;28;20106;-46
2024/03/16 07:57:18;;;;;;;4.63;1.33;;;14.20;78.60;;;;;;5061310;28;20476;-46
2024/03/16 07:59:44;;;;;;;3.78;1.00;;;14.10;78.80;;;;;;5065152;28;20028;-45
2024/03/16 08:02:10;;;;;;;3.25;1.20;;;14.00;79.00;;;;;;5067450;28;20027;-44
2024/03/16 08:04:36;;;;;;;4.13;1.83;;;13.90;79.30;;;;;;5061491;28;20378;-46
2024/03/16 08:07:02;;;;;;;4.45;1.58;;;13.80;79.50;;;;;;5062961;28;20298;-46
2024/03/16 08:09:28;;;;;;;8.00;1.98;;;13.80;79.80;;;;;;5058755;28;20152;-45
2024/03/16 08:11:54;;;;;;;3.30;1.20;;;13.70;80.10;;;;;;5069538;28;20028;-46
2024/03/16 08:14:20;;;;;;;4.63;1.45;;;13.60;80.70;;;;;;5060760;28;20048;-47
2024/03/16 08:16:46;;;;;;;3.88;1.23;;;13.50;81.20;;;;;;5067045;28;20017;-45
2024/03/16 08:19:14;;;;;;;2.38;1.30;;;13.40;81.70;;;;;;5075528;28;20031;-47
2024/03/16 08:21:40;;;;;;;4.30;1.52;;;13.30;82.20;;;;;;5062218;28;20020;-45
2024/03/16 08:24:05;;;;;;;2.13;1.10;;;13.30;83.00;;;;;;5065486;28;20036;-45
2024/03/16 08:26:32;;;;;;;4.70;1.55;;;13.20;83.30;;;;;;5065246;28;20024;-45
2024/03/16 08:28:57;;;;;;;2.60;1.27;;;13.20;83.70;;;;;;5058480;28;20404;-47
2024/03/16 08:31:23;;;;;;;4.82;1.13;;;13.20;84.50;;;;;;5060851;28;20024;-49
2024/03/16 08:33:48;;;;;;;3.72;1.48;;;13.20;85.10;;;;;;5060488;28;20139;-46
2024/03/16 08:36:15;;;;;;;2.75;1.27;;;13.20;84.70;;;;;;5060316;28;20025;-45
2024/03/16 08:38:40;;;;;;;3.67;1.58;;;13.10;84.80;;;;;;5057435;28;20022;-44
2024/03/16 08:41:06;;;;;;;4.30;1.27;;;13.00;85.10;;;;;;5059592;28;20025;-47
2024/03/16 08:43:31;;;;;;;1.92;0.90;;;13.10;85.20;;;;;;5069760;28;20491;-45
2024/03/16 08:46:00;;;;;;;4.53;1.10;;;13.10;85.20;;;;;;5065736;28;20064;-46
2024/03/16 08:48:26;;;;;;;4.28;1.20;;;13.30;85.20;;;;;;5060328;28;20036;-47
2024/03/16 08:50:51;;;;;;;4.65;1.20;;;13.40;85.00;;;;;;5064170;28;20771;-46
2024/03/16 08:53:17;;;;;;;2.65;1.30;;;13.40;84.60;;;;;;5059730;28;20139;-46
2024/03/16 08:55:42;;;;;;;2.25;1.10;;;13.40;84.40;;;;;;5068422;28;20035;-49
2024/03/16 08:58:08;;;;;;;4.28;1.65;;;13.40;84.40;;;;;;5064148;28;20033;-49
2024/03/16 09:00:33;;;;;;;3.05;1.30;;;13.40;84.50;;;;;;5069850;28;20055;-47
2024/03/16 09:03:00;;;;;;;2.33;1.48;;;13.40;84.60;;;;;;5060322;28;20024;-47
2024/03/16 09:05:26;;;;;;;3.78;1.20;;;13.50;84.60;;;;;;5072562;28;20495;-45
2024/03/16 09:07:51;;;;;;;2.83;1.27;;;13.40;84.40;;;;;;5059871;28;20308;-45
2024/03/16 09:10:17;;;;;;;9.32;1.67;;;13.40;84.50;;;;;;5063757;28;20037;-47
2024/03/16 09:12:43;;;;;;;2.08;1.35;;;13.40;85.20;;;;;;5064022;28;20032;-49
2024/03/16 09:15:08;;;;;;;1.60;1.08;;;13.40;85.50;;;;;;5068251;28;20036;-47
2024/03/16 09:17:34;;;;;;;6.00;2.25;;;13.40;85.80;;;;;;5065794;28;20025;-46
2024/03/16 09:20:10;;;;;;;2.65;1.35;;;13.40;86.00;;;;;;5062065;28;20028;-45
2024/03/16 09:22:38;;;;;;;3.67;1.40;;;13.30;86.60;;;;;;5059648;28;20032;-45
2024/03/16 09:25:05;;;;;;;4.75;1.40;;;13.30;87.20;;;;;;5071234;28;20032;-46
2024/03/16 09:27:31;;;;;;;5.00;1.48;;;13.20;88.30;;;;;;5060397;28;20066;-47
2024/03/16 09:29:57;;;;;;;5.25;2.35;;;13.00;89.70;;;;;;5063587;28;20036;-47
2024/03/16 09:32:23;;;;;;;3.17;1.67;;;12.90;90.60;;;;;;5063771;28;20487;-46
2024/03/16 09:34:48;;;;;;;4.68;1.77;;;12.90;91.10;;;;;;5058176;28;20032;-45
2024/03/16 09:37:14;;;;;;;3.78;1.60;;;12.80;91.40;;;;;;5065162;28;20100;-50
2024/03/16 09:39:42;;;;;;;4.18;1.70;;;12.80;92.10;;;;;;5053203;28;20019;-47
2024/03/16 09:42:09;;;;;;;4.43;1.40;;;12.90;92.80;;;;;;5066554;28;20444;-45
2024/03/16 09:44:35;;;;;;;3.03;1.40;;;12.90;93.20;;;;;;5063943;28;20025;-46
2024/03/16 09:47:02;;;;;;;4.20;1.30;;;12.90;93.80;;;;;;5063604;28;20546;-44
2024/03/16 09:49:30;;;;;;;3.95;1.33;;;13.10;93.40;;;;;;5063862;28;20032;-49
2024/03/16 09:51:59;;;;;;;4.95;1.50;;;13.30;93.70;;;;;;5064737;28;20029;-48
2024/03/16 09:54:28;;;;;;;2.20;1.48;;;13.60;93.10;;;;;;5059270;28;20028;-45
2024/03/16 09:56:53;;;;;;;4.32;1.52;;;14.10;92.80;;;;;;5063331;28;20016;-44
2024/03/16 09:59:20;;;;;;;2.25;1.40;;;14.50;92.50;;;;;;5065241;28;20025;-45
2024/03/16 10:01:47;;;;;;;4.53;1.75;;;14.90;91.90;;;;;;5066955;28;20039;-42
2024/03/16 10:04:13;;;;;;;2.50;1.20;;;15.30;92.30;;;;;;5065314;28;20051;-50
2024/03/16 10:06:38;;;;;;;4.75;1.77;;;15.50;91.40;;;;;;5071961;28;20488;-47
2024/03/16 10:09:15;;;;;;;3.60;1.60;;;15.70;90.90;;;;;;5064771;28;20120;-46
2024/03/16 10:11:41;;;;;;;4.28;1.73;;;15.90;91.50;;;;;;5067901;28;20427;-44
2024/03/16 10:14:11;;;;;;;2.72;1.42;;;16.10;90.60;;;;;;5065343;28;20052;-44
2024/03/16 10:16:40;;;;;;;2.42;1.75;;;16.30;90.00;;;;;;5064393;28;20029;-45
2024/03/16 10:19:09;;;;;;;2.80;1.30;;;16.50;88.80;;;;;;5067321;28;20032;-47
2024/03/16 10:21:35;;;;;;;3.33;1.60;;;16.70;87.90;;;;;;5069041;28;20118;-48
2024/03/16 10:24:01;;;;;;;3.03;1.73;;;16.80;86.60;;;;;;5069224;28;20100;-45
2024/03/16 10:26:32;;;;;;;3.20;1.60;;;16.90;83.60;;;;;;5071369;28;20012;-47
2024/03/16 10:29:04;;;;;;;3.35;1.60;;;16.90;84.00;;;;;;5063914;28;20020;-47
2024/03/16 10:31:29;;;;;;;4.13;1.60;;;16.90;82.40;;;;;;5065944;28;20055;-47
2024/03/16 10:33:59;;;;;;;6.10;2.20;;;17.00;80.80;;;;;;5065193;28;20492;-45
2024/03/16 10:36:26;;;;;;;2.83;1.40;;;17.10;78.20;;;;;;5068868;28;20372;-52
2024/03/16 10:38:53;;;;;;;4.30;2.38;;;17.30;77.50;;;;;;5063047;28;20647;-48
2024/03/16 10:41:19;;;;;;;1.75;1.38;;;17.20;76.20;;;;;;5071100;28;20031;-45
2024/03/16 10:43:45;;;;;;;1.73;1.33;;;17.20;75.70;;;;;;5069522;28;20035;-46
2024/03/16 10:46:15;;;;;;;3.30;1.90;;;17.30;74.60;;;;;;5064108;28;20115;-48
2024/03/16 10:48:41;;;;;;;5.03;1.92;;;17.40;73.70;;;;;;5070892;28;20016;-47
2024/03/16 10:51:08;;;;;;;3.78;1.70;;;17.60;73.50;;;;;;5068129;28;20021;-47
2024/03/16 10:53:35;;;;;;;3.42;1.63;;;17.60;70.90;;;;;;5064439;28;20575;-47
2024/03/16 10:56:02;;;;;;;3.70;1.67;;;17.70;70.90;;;;;;5071265;28;20024;-51
2024/03/16 10:58:29;;;;;;;4.75;1.55;;;17.70;70.10;;;;;;5065679;28;20020;-49
2024/03/16 11:01:01;;;;;;;4.38;1.90;;;17.80;69.90;;;;;;5072209;28;20020;-45
2024/03/16 11:03:29;;;;;;;5.15;2.38;;;17.70;69.80;;;;;;5064857;28;20036;-45
2024/03/16 11:06:11;;;;;;;4.80;2.40;;;17.30;69.00;;;;;;5064665;28;20028;-46
2024/03/16 11:08:48;;;;;;;3.08;1.80;;;17.00;68.60;;;;;;5061302;28;20036;-46
2024/03/16 11:11:24;;;;;;;5.38;2.00;;;16.50;69.50;;;;;;5075163;28;20024;-45
2024/03/16 11:13:56;;;;;;;;;;;16.10;71.80;;;;;;5062478;28;20029;-47
2024/03/16 11:16:35;;;;;;;2.50;1.40;;;15.60;76.50;;;;;;5068798;28;20372;-45
2024/03/16 11:19:07;;;;;;;6.25;1.95;;;15.10;77.80;;;;;;5068453;28;20035;-46
2024/03/16 11:21:33;;;;;;;5.00;1.98;;;15.00;78.90;;;;;;5066322;28;20044;-45
2024/03/16 11:24:03;;;;;;;4.95;2.22;;;15.10;80.40;;;;;;5067838;28;20020;-46
2024/03/16 11:26:36;;;;;;;4.03;1.90;;;15.20;81.40;;;;;;5060088;28;20020;-46
2024/03/16 11:29:09;;;;;;;5.05;1.85;;;15.20;81.80;;;;;;5058682;28;20021;-44
2024/03/16 11:31:39;;;;;;;2.78;2.00;;;15.20;82.60;;;;;;5064925;28;20021;-47
2024/03/16 11:34:08;;;;;;;3.15;2.20;;;15.10;83.00;;;;;;5059631;28;20047;-45
2024/03/16 11:36:35;;;;;;;4.10;2.15;;;15.00;83.10;;;;;;5063429;28;20031;-47
2024/03/16 11:39:10;;;;;;;3.88;2.20;;;14.80;84.10;;;;;;5062367;28;20044;-45
2024/03/16 11:41:37;;;;;;;4.43;2.50;;;14.60;84.60;;;;;;5066261;28;20388;-49
2024/03/16 11:44:06;;;;;;;3.90;2.55;;;14.60;85.00;;;;;;5059560;28;20089;-48
2024/03/16 11:46:32;;;;;;;5.53;2.17;;;14.50;86.50;;;;;;5063552;28;20498;-46
2024/03/16 11:49:00;;;;;;;5.40;2.50;;;14.70;87.00;;;;;;5065774;28;20071;-45
2024/03/16 11:51:28;;;;;;;4.50;2.90;;;14.90;87.20;;;;;;5061471;28;20031;-45
2024/03/16 11:53:54;;;;;;;5.35;2.42;;;15.10;86.70;;;;;;5063046;28;20028;-45
2024/03/16 11:56:22;;;;;;;4.80;2.58;;;15.20;87.60;;;;;;5068970;28;20043;-48
2024/03/16 11:58:50;;;;;;;3.22;2.10;;;15.30;86.70;;;;;;5067941;28;20514;-45
2024/03/16 12:01:21;;;;;;;5.00;2.40;;;15.40;86.80;;;;;;5066019;28;20024;-46
2024/03/16 12:03:48;;;;;;;7.28;2.78;;;15.40;86.50;;;;;;5068024;28;20508;-45
2024/03/16 12:06:14;;;;;;;4.57;2.80;;;15.40;86.50;;;;;;5069464;28;20109;-48
2024/03/16 12:08:39;;;;;;;5.00;3.22;;;15.40;86.60;;;;;;5062637;28;20060;-45
2024/03/16 12:11:08;;;;;;;3.35;2.55;;;15.20;86.40;;;;;;5065929;28;20396;-49
2024/03/16 12:13:34;;;;;;;4.35;2.80;;;15.00;86.50;;;;;;5072208;28;20032;-45
2024/03/16 12:16:01;;;;;;;5.22;3.20;;;14.80;87.00;;;;;;5072668;28;20495;-45
2024/03/16 12:18:27;;;;;;;6.85;3.03;;;14.50;88.00;;;;;;5071396;28;20036;-51
2024/03/16 12:20:56;;;;;;;3.92;2.10;;;14.10;91.30;;;;;;5074219;28;20082;-47
2024/03/16 12:23:24;;;;;;;3.97;1.98;;;13.70;91.70;;;;;;5068628;28;20024;-45
2024/03/16 12:25:51;;;;;;;3.08;2.28;;;13.20;93.70;;;;;;5076086;28;20568;-47
2024/03/16 12:28:17;;;;;;;6.15;2.58;;;13.00;95.30;;;;;;5061960;28;20024;-45
2024/03/16 12:30:42;;;;;;;5.72;3.05;;;12.80;96.20;;;;;;5064844;28;20434;-47
2024/03/16 12:33:11;;;;;;;3.53;2.33;;;12.70;97.30;;;;;;5071098;28;20037;-50
2024/03/16 12:35:37;;;;;;;3.30;2.63;;;12.70;97.10;;;;;;5072603;28;20419;-46
2024/03/16 12:38:03;;;;;;;3.55;2.22;;;12.70;97.00;;;;;;5063409;28;20020;-45
2024/03/16 12:40:29;;;;;;;5.13;2.47;;;12.70;96.30;;;;;;5059273;28;20221;-46
2024/03/16 12:42:54;;;;;;;6.30;2.38;;;12.70;95.90;;;;;;5063780;28;20032;-46
2024/03/16 12:45:21;;;;;;;4.78;2.50;;;12.60;95.50;;;;;;5065846;28;20100;-45
2024/03/16 12:47:46;;;;;;;3.72;2.60;;;12.60;95.50;;;;;;5067485;28;20027;-48